Time;durP1;ratioP1;P1;durP2;ratioP2;P2;SDS_P1;SDS_P2;PMS_P1;PMS_P2;Temp;Humidity;BMP_temperature;BMP_pressure;BME280_temperature;BME280_humidity;BME280_pressure;Samples;Min_cycle;Max_cycle;Signal;HPM_P1;HPM_P2
2021/12/02 00:01:09;;;;;;;4.70;2.42;;;;;;;;;;5042695;28;20139;-41
2021/12/02 00:03:35;;;;;;;13.05;5.40;;;;;;;;;;5042293;28;20021;-43
2021/12/02 00:06:01;;;;;;;15.13;5.22;;;;;;;;;;5044500;28;20031;-39
2021/12/02 00:08:26;;;;;;;10.07;2.80;;;;;;;;;;5044865;28;20120;-42
2021/12/02 00:10:52;;;;;;;11.65;4.55;;;;;;;;;;5042432;28;20025;-38
2021/12/02 00:13:22;;;;;;;4.25;3.05;;;;;;;;;;5044108;28;20230;-39
2021/12/02 00:15:57;;;;;;;9.55;4.55;;;;;;;;;;5043855;28;20140;-41
2021/12/02 00:21:06;;;;;;;9.75;2.85;;;;;;;;;;5043772;28;20464;-39
2021/12/02 00:23:34;;;;;;;12.60;1.67;;;;;;;;;;5044585;28;20029;-41
2021/12/02 00:26:20;;;;;;;8.90;1.45;;;;;;;;;;5042408;28;20532;-39
2021/12/02 00:28:49;;;;;;;0.90;0.70;;;;;;;;;;5043238;28;20048;-42
2021/12/02 00:31:16;;;;;;;3.88;1.73;;;;;;;;;;5044107;28;20117;-40
2021/12/02 00:33:45;;;;;;;6.50;2.00;;;;;;;;;;5042631;28;20029;-43
2021/12/02 00:36:11;;;;;;;2.95;1.35;;;;;;;;;;5042900;28;20040;-40
2021/12/02 00:38:39;;;;;;;5.90;1.80;;;;;;;;;;5044531;28;20033;-39
2021/12/02 00:41:04;;;;;;;2.17;1.63;;;;;;;;;;5044232;28;20021;-38
2021/12/02 00:43:31;;;;;;;8.60;2.47;;;;;;;;;;5042566;28;20662;-39
2021/12/02 00:45:57;;;;;;;3.72;2.25;;;;;;;;;;5043095;28;20031;-39
2021/12/02 00:48:22;;;;;;;3.38;1.88;;;;;;;;;;5043397;28;20025;-39
2021/12/02 00:50:48;;;;;;;6.32;2.63;;;;;;;;;;5045817;28;20036;-39
2021/12/02 00:53:18;;;;;;;5.07;2.85;;;;;;;;;;5046393;28;20024;-40
2021/12/02 00:55:43;;;;;;;7.10;2.65;;;;;;;;;;5046441;28;20029;-42
2021/12/02 00:58:11;;;;;;;4.22;2.85;;;;;;;;;;5046270;28;20118;-38
2021/12/02 01:00:36;;;;;;;8.57;3.67;;;;;;;;;;5046380;28;20036;-38
2021/12/02 01:03:02;;;;;;;3.35;1.92;;;;;;;;;;5045742;28;20017;-41
2021/12/02 01:05:28;;;;;;;4.60;2.38;;;;;;;;;;5045724;28;20095;-40
2021/12/02 01:07:54;;;;;;;9.38;2.65;;;;;;;;;;5045422;28;20025;-45
2021/12/02 01:10:20;;;;;;;4.80;1.98;;;;;;;;;;5045421;28;20502;-40
2021/12/02 01:12:46;;;;;;;5.20;2.10;;;;;;;;;;5045505;28;20027;-40
2021/12/02 01:15:12;;;;;;;8.68;2.55;;;;;;;;;;5046532;28;20032;-40
2021/12/02 01:17:38;;;;;;;7.50;1.88;;;;;;;;;;5041006;28;20048;-42
2021/12/02 01:20:03;;;;;;;13.77;2.33;;;;;;;;;;5045630;28;20032;-40
2021/12/02 01:22:32;;;;;;;3.58;1.70;;;;;;;;;;5045723;28;20021;-40
2021/12/02 01:24:58;;;;;;;3.65;1.85;;;;;;;;;;5045653;28;20075;-43
2021/12/02 01:27:23;;;;;;;4.93;1.38;;;;;;;;;;5045768;28;20013;-40
2021/12/02 01:29:50;;;;;;;8.25;2.10;;;;;;;;;;5046526;28;20027;-41
2021/12/02 01:32:16;;;;;;;4.78;1.77;;;;;;;;;;5044656;28;20024;-39
2021/12/02 01:34:46;;;;;;;4.97;2.13;;;;;;;;;;5044446;28;20025;-41
2021/12/02 01:37:11;;;;;;;7.45;1.38;;;;;;;;;;5046469;28;20036;-40
2021/12/02 01:39:37;;;;;;;5.15;1.85;;;;;;;;;;5045301;28;20029;-42
2021/12/02 01:42:02;;;;;;;1.00;0.70;;;;;;;;;;5045406;28;20100;-40
2021/12/02 01:44:28;;;;;;;6.78;0.73;;;;;;;;;;5045806;28;20376;-42
2021/12/02 01:46:56;;;;;;;21.67;1.65;;;;;;;;;;5042478;28;20017;-41
2021/12/02 01:49:23;;;;;;;0.38;0.38;;;;;;;;;;5044651;28;20021;-38
2021/12/02 01:51:50;;;;;;;1.65;0.90;;;;;;;;;;5045241;28;20033;-41
2021/12/02 01:54:17;;;;;;;2.45;0.70;;;;;;;;;;5043493;28;20053;-40
2021/12/02 01:56:48;;;;;;;4.63;1.77;;;;;;;;;;5045564;28;20056;-41
2021/12/02 01:59:25;;;;;;;1.70;0.73;;;;;;;;;;5045502;28;20021;-40
2021/12/02 02:01:52;;;;;;;4.28;1.35;;;;;;;;;;5044238;28;20029;-41
2021/12/02 02:04:18;;;;;;;17.15;1.55;;;;;;;;;;5045682;28;20009;-41
2021/12/02 02:07:04;;;;;;;2.80;0.95;;;;;;;;;;5045061;28;20021;-41
2021/12/02 02:09:34;;;;;;;2.95;1.20;;;;;;;;;;5045125;28;20040;-41
2021/12/02 02:12:03;;;;;;;4.80;2.05;;;;;;;;;;5043875;28;20117;-39
2021/12/02 02:14:31;;;;;;;7.20;2.50;;;;;;;;;;5043510;28;20032;-39
2021/12/02 02:17:13;;;;;;;6.65;2.65;;;;;;;;;;5043716;28;20044;-41
2021/12/02 02:19:39;;;;;;;5.63;1.33;;;;;;;;;;5009095;28;20037;-43
2021/12/02 02:22:05;;;;;;;2.95;1.05;;;;;;;;;;5046045;28;20584;-40
2021/12/02 02:24:33;;;;;;;8.93;1.25;;;;;;;;;;5047977;28;20048;-39
2021/12/02 02:26:59;;;;;;;3.90;1.60;;;;;;;;;;5047941;28;20021;-41
2021/12/02 02:29:24;;;;;;;3.40;1.05;;;;;;;;;;5048584;28;20021;-40
2021/12/02 02:31:50;;;;;;;7.88;1.15;;;;;;;;;;5048626;28;20029;-39
2021/12/02 02:34:21;;;;;;;1.48;0.82;;;;;;;;;;5046705;28;20028;-42
2021/12/02 02:36:59;;;;;;;1.48;0.95;;;;;;;;;;5048705;28;20601;-39
2021/12/02 02:39:28;;;;;;;3.83;1.42;;;;;;;;;;5047016;28;20166;-39
2021/12/02 02:41:58;;;;;;;2.20;0.98;;;;;;;;;;5049003;28;20063;-44
2021/12/02 02:47:25;;;;;;;2.85;1.50;;;;;;;;;;5048688;28;20089;-40
2021/12/02 02:49:58;;;;;;;3.35;1.50;;;;;;;;;;5047515;28;20644;-38
2021/12/02 02:52:26;;;;;;;12.10;5.45;;;;;;;;;;5048101;28;20017;-40
2021/12/02 02:54:57;;;;;;;4.93;3.05;;;;;;;;;;5047723;28;20610;-43
2021/12/02 02:57:26;;;;;;;4.93;2.17;;;;;;;;;;5047978;28;20421;-41
2021/12/02 03:07:44;;;;;;;5.18;1.90;;;;;;;;;;5046379;28;20040;-42
2021/12/02 03:12:40;;;;;;;0.55;0.22;;;;;;;;;;5047816;28;20024;-41
2021/12/02 03:17:34;;;;;;;1.23;0.45;;;;;;;;;;5047839;28;20082;-40
2021/12/02 03:20:00;;;;;;;2.45;1.58;;;;;;;;;;5048313;28;20017;-41
2021/12/02 03:22:28;;;;;;;3.88;1.30;;;;;;;;;;5048618;28;20106;-42
2021/12/02 03:24:56;;;;;;;1.48;0.47;;;;;;;;;;5047107;28;20029;-44
2021/12/02 03:27:22;;;;;;;2.03;1.13;;;;;;;;;;5047079;28;20031;-42
2021/12/02 03:29:47;;;;;;;1.75;0.70;;;;;;;;;;5047404;28;20025;-42
2021/12/02 03:32:12;;;;;;;5.32;1.95;;;;;;;;;;5047427;28;20099;-42
2021/12/02 03:34:44;;;;;;;2.90;0.70;;;;;;;;;;5046015;28;20036;-40
2021/12/02 03:37:10;;;;;;;2.03;1.17;;;;;;;;;;5046253;28;20045;-40
2021/12/02 03:39:35;;;;;;;1.23;0.57;;;;;;;;;;5046404;28;20041;-41
2021/12/02 03:42:07;;;;;;;10.82;1.50;;;;;;;;;;5048040;28;20025;-45
2021/12/02 03:44:35;;;;;;;4.50;1.95;;;;;;;;;;5045987;28;20027;-42
2021/12/02 03:47:04;;;;;;;5.88;1.58;;;;;;;;;;5048212;28;20014;-40
2021/12/02 03:49:32;;;;;;;4.03;1.25;;;;;;;;;;5047371;28;20017;-43
2021/12/02 03:51:57;;;;;;;1.90;0.90;;;;;;;;;;5047268;28;20029;-41
2021/12/02 03:54:25;;;;;;;3.13;0.77;;;;;;;;;;5047956;28;20034;-42
2021/12/02 03:56:50;;;;;;;5.30;0.57;;;;;;;;;;5047510;28;20024;-45
2021/12/02 03:59:16;;;;;;;10.30;1.48;;;;;;;;;;5047611;28;20021;-40
2021/12/02 04:01:41;;;;;;;0.95;0.40;;;;;;;;;;5047665;28;20112;-41
2021/12/02 04:04:31;;;;;;;2.17;0.60;;;;;;;;;;5048161;28;20477;-40
2021/12/02 04:07:02;;;;;;;3.08;0.55;;;;;;;;;;5029312;28;20501;-42
2021/12/02 04:09:34;;;;;;;2.33;1.00;;;;;;;;;;5047093;28;20020;-39
2021/12/02 04:12:06;;;;;;;5.15;1.15;;;;;;;;;;5045914;28;20037;-42
2021/12/02 04:15:24;;;;;;;4.07;0.95;;;;;;;;;;5047462;28;20042;-41
2021/12/02 04:17:18;;;;;;;1.08;0.82;;;;;;;;;;5029818;28;20067;-40
2021/12/02 04:19:44;;;;;;;1.75;0.22;;;;;;;;;;5047514;28;20029;-39
2021/12/02 04:22:09;;;;;;;6.40;1.55;;;;;;;;;;5047316;28;20098;-41
2021/12/02 04:24:34;;;;;;;10.18;1.52;;;;;;;;;;5047252;28;20047;-40
2021/12/02 04:27:00;;;;;;;1.00;0.50;;;;;;;;;;5047127;28;20020;-42
2021/12/02 04:29:25;;;;;;;5.68;1.42;;;;;;;;;;5047799;28;20100;-40
2021/12/02 04:31:51;;;;;;;1.48;1.10;;;;;;;;;;5046951;28;20021;-39
2021/12/02 04:34:17;;;;;;;1.38;0.80;;;;;;;;;;5045120;28;20052;-40
2021/12/02 04:36:42;;;;;;;1.55;0.43;;;;;;;;;;5047009;28;20535;-39
2021/12/02 04:39:09;;;;;;;2.80;0.77;;;;;;;;;;5047363;28;20075;-44
2021/12/02 04:41:34;;;;;;;0.70;0.50;;;;;;;;;;5046405;28;20020;-45
2021/12/02 04:44:00;;;;;;;0.40;0.20;;;;;;;;;;5045091;28;20461;-41
2021/12/02 04:46:25;;;;;;;6.88;0.80;;;;;;;;;;5046212;28;20020;-40
2021/12/02 04:48:51;;;;;;;1.58;0.20;;;;;;;;;;5046929;28;20096;-40
2021/12/02 04:51:16;;;;;;;6.85;0.50;;;;;;;;;;5046561;28;20431;-40
2021/12/02 04:53:41;;;;;;;4.55;0.85;;;;;;;;;;5047146;28;20074;-41
2021/12/02 04:56:07;;;;;;;2.95;0.88;;;;;;;;;;5046080;28;20432;-47
2021/12/02 04:58:32;;;;;;;1.15;0.65;;;;;;;;;;5046874;28;20035;-40
2021/12/02 05:00:58;;;;;;;8.77;1.05;;;;;;;;;;5047070;28;20025;-41
2021/12/02 05:03:24;;;;;;;1.65;0.73;;;;;;;;;;5046938;28;20021;-43
2021/12/02 05:05:49;;;;;;;2.83;0.93;;;;;;;;;;5046304;28;20040;-40
2021/12/02 05:08:14;;;;;;;1.90;1.13;;;;;;;;;;5046364;28;20040;-41
2021/12/02 05:10:40;;;;;;;3.78;0.80;;;;;;;;;;5046199;28;20025;-41
2021/12/02 05:13:05;;;;;;;0.65;0.30;;;;;;;;;;5046405;28;20452;-40
2021/12/02 05:15:31;;;;;;;2.10;0.65;;;;;;;;;;5045968;28;20032;-41
2021/12/02 05:17:56;;;;;;;2.38;0.88;;;;;;;;;;5046642;28;20032;-38
2021/12/02 05:20:21;;;;;;;9.20;1.17;;;;;;;;;;5046667;28;20419;-40
2021/12/02 05:22:47;;;;;;;4.13;0.22;;;;;;;;;;5046684;28;20102;-37
2021/12/02 05:25:12;;;;;;;5.32;1.60;;;;;;;;;;5046176;28;20231;-44
2021/12/02 05:27:38;;;;;;;2.83;1.10;;;;;;;;;;5046034;28;20130;-43
2021/12/02 05:30:06;;;;;;;1.05;0.52;;;;;;;;;;5043210;28;20052;-40
2021/12/02 05:32:32;;;;;;;1.02;0.50;;;;;;;;;;5045429;28;20028;-43
2021/12/02 05:34:58;;;;;;;6.32;1.35;;;;;;;;;;5046474;28;20017;-42
2021/12/02 05:37:23;;;;;;;3.63;1.10;;;;;;;;;;5046262;28;20009;-44
2021/12/02 05:39:48;;;;;;;0.45;0.30;;;;;;;;;;5046328;28;20348;-40
2021/12/02 05:42:14;;;;;;;3.17;0.73;;;;;;;;;;5045800;28;20075;-39
2021/12/02 05:44:40;;;;;;;1.50;0.50;;;;;;;;;;5044616;28;20018;-38
2021/12/02 05:47:05;;;;;;;4.28;1.15;;;;;;;;;;5045080;28;20009;-37
2021/12/02 05:49:31;;;;;;;3.00;0.93;;;;;;;;;;5045173;28;20019;-43
2021/12/02 05:51:56;;;;;;;1.15;0.40;;;;;;;;;;5046764;28;20029;-43
2021/12/02 05:54:21;;;;;;;1.45;0.25;;;;;;;;;;5046291;28;20526;-41
2021/12/02 05:56:47;;;;;;;0.22;0.17;;;;;;;;;;5045714;28;20079;-39
2021/12/02 05:59:12;;;;;;;1.38;0.73;;;;;;;;;;5049000;28;20021;-39
2021/12/02 06:01:41;;;;;;;5.25;1.23;;;;;;;;;;5049751;28;20699;-41
2021/12/02 06:04:08;;;;;;;6.10;1.73;;;;;;;;;;5049883;28;20021;-39
2021/12/02 06:06:33;;;;;;;5.60;0.90;;;;;;;;;;5050096;28;20021;-41
2021/12/02 06:08:59;;;;;;;5.05;1.10;;;;;;;;;;5049617;28;20017;-41
2021/12/02 06:11:24;;;;;;;1.98;1.02;;;;;;;;;;5050108;28;20029;-40
2021/12/02 06:13:49;;;;;;;3.03;1.55;;;;;;;;;;5050837;28;20020;-40
2021/12/02 06:16:15;;;;;;;2.25;1.23;;;;;;;;;;5049476;28;20091;-42
2021/12/02 06:18:40;;;;;;;3.20;0.93;;;;;;;;;;5050593;28;20103;-39
2021/12/02 06:21:06;;;;;;;2.38;0.57;;;;;;;;;;5050893;28;20438;-43
2021/12/02 06:23:31;;;;;;;4.72;0.70;;;;;;;;;;5050455;28;20212;-40
2021/12/02 06:25:56;;;;;;;1.52;0.70;;;;;;;;;;5050399;28;20032;-39
2021/12/02 06:28:22;;;;;;;1.13;0.43;;;;;;;;;;5049686;28;20078;-46
2021/12/02 06:30:47;;;;;;;1.80;1.23;;;;;;;;;;5048760;28;20039;-39
2021/12/02 06:33:13;;;;;;;6.20;1.77;;;;;;;;;;5048777;28;20038;-42
2021/12/02 06:35:39;;;;;;;3.03;0.68;;;;;;;;;;5049936;28;20016;-39
2021/12/02 06:38:04;;;;;;;5.82;1.33;;;;;;;;;;5049727;28;20460;-41
2021/12/02 06:40:30;;;;;;;12.18;1.23;;;;;;;;;;5049809;28;20029;-42
2021/12/02 06:42:55;;;;;;;3.72;1.10;;;;;;;;;;5050070;28;20167;-44
2021/12/02 06:45:20;;;;;;;3.15;1.25;;;;;;;;;;5049917;28;20546;-43
2021/12/02 06:47:46;;;;;;;3.30;1.27;;;;;;;;;;5049636;28;20202;-43
2021/12/02 06:50:16;;;;;;;5.53;1.52;;;;;;;;;;5049435;28;20040;-44
2021/12/02 06:52:41;;;;;;;4.82;4.13;;;;;;;;;;5049424;28;20095;-41
2021/12/02 06:55:07;;;;;;;7.10;1.50;;;;;;;;;;5049930;28;20017;-42
2021/12/02 06:57:32;;;;;;;26.55;5.95;;;;;;;;;;5049491;28;20407;-41
2021/12/02 07:00:03;;;;;;;3.60;1.17;;;;;;;;;;5048896;28;20511;-42
2021/12/02 07:02:29;;;;;;;1.73;0.85;;;;;;;;;;5048028;28;20491;-44
2021/12/02 07:04:57;;;;;;;1.98;0.63;;;;;;;;;;5048824;28;20032;-47
2021/12/02 07:07:22;;;;;;;3.40;0.80;;;;;;;;;;5048555;28;20045;-46
2021/12/02 07:09:48;;;;;;;2.55;0.52;;;;;;;;;;5046754;28;20040;-46
2021/12/02 07:12:13;;;;;;;4.78;2.17;;;;;;;;;;5048861;28;20044;-45
2021/12/02 07:14:39;;;;;;;2.38;1.17;;;;;;;;;;5048483;28;20484;-40
2021/12/02 07:17:04;;;;;;;6.57;3.60;;;;;;;;;;5049045;28;20045;-46
2021/12/02 07:19:29;;;;;;;2.97;1.63;;;;;;;;;;5048890;28;20396;-45
2021/12/02 07:21:55;;;;;;;8.48;2.65;;;;;;;;;;5049172;28;20021;-44
2021/12/02 07:24:21;;;;;;;3.25;1.30;;;;;;;;;;5049142;28;20365;-43
2021/12/02 07:26:46;;;;;;;2.85;1.23;;;;;;;;;;5049087;28;20036;-40
2021/12/02 07:29:13;;;;;;;2.50;0.40;;;;;;;;;;5046256;28;20637;-39
2021/12/02 07:31:39;;;;;;;3.63;0.50;;;;;;;;;;5046833;28;20542;-42
2021/12/02 07:34:05;;;;;;;3.83;1.50;;;;;;;;;;5048861;28;20078;-41
2021/12/02 07:36:31;;;;;;;3.97;0.70;;;;;;;;;;5048602;28;20476;-44
2021/12/02 07:38:59;;;;;;;5.10;0.70;;;;;;;;;;5046494;28;20051;-41
2021/12/02 07:41:25;;;;;;;0.77;0.43;;;;;;;;;;5049292;28;20031;-40
2021/12/02 07:43:50;;;;;;;3.17;1.33;;;;;;;;;;5047877;28;20016;-42
2021/12/02 07:46:15;;;;;;;2.25;1.23;;;;;;;;;;5046922;28;20032;-40
2021/12/02 07:48:41;;;;;;;2.78;1.35;;;;;;;;;;5048026;28;20017;-40
2021/12/02 07:51:10;;;;;;;7.22;1.08;;;;;;;;;;5047845;28;20071;-40
2021/12/02 07:53:39;;;;;;;4.55;1.50;;;;;;;;;;5046572;28;20094;-40
2021/12/02 07:56:05;;;;;;;5.10;1.80;;;;;;;;;;5036293;28;20037;-41
2021/12/02 07:58:31;;;;;;;7.60;2.72;;;;;;;;;;5043896;28;20048;-43
2021/12/02 08:01:00;;;;;;;3.47;1.48;;;;;;;;;;5043345;28;20025;-42
2021/12/02 08:03:26;;;;;;;2.22;0.63;;;;;;;;;;5043928;28;20641;-43
2021/12/02 08:05:52;;;;;;;5.88;1.42;;;;;;;;;;5044035;28;20024;-46
2021/12/02 08:08:17;;;;;;;4.40;1.58;;;;;;;;;;5045511;28;20024;-42
2021/12/02 08:10:43;;;;;;;1.25;0.90;;;;;;;;;;5045214;28;20013;-44
2021/12/02 08:13:08;;;;;;;2.55;1.08;;;;;;;;;;5043448;28;20133;-39
2021/12/02 08:15:34;;;;;;;7.05;2.00;;;;;;;;;;5044220;28;20029;-38
2021/12/02 08:18:00;;;;;;;3.90;1.38;;;;;;;;;;5041024;28;20037;-38
2021/12/02 08:20:26;;;;;;;2.55;1.20;;;;;;;;;;5044793;28;20071;-39
2021/12/02 08:22:51;;;;;;;1.40;1.23;;;;;;;;;;5048135;28;20029;-41
2021/12/02 08:25:17;;;;;;;6.30;2.55;;;;;;;;;;5046852;28;20044;-38
2021/12/02 08:27:43;;;;;;;10.20;3.47;;;;;;;;;;5044571;28;20056;-38
2021/12/02 08:30:10;;;;;;;3.85;1.63;;;;;;;;;;5045091;28;20067;-38
2021/12/02 08:32:38;;;;;;;1.80;1.40;;;;;;;;;;5045340;28;20507;-40
2021/12/02 08:35:04;;;;;;;1.83;1.05;;;;;;;;;;5045756;28;20025;-37
2021/12/02 08:37:31;;;;;;;12.68;5.95;;;;;;;;;;5045481;28;20450;-37
2021/12/02 08:39:59;;;;;;;11.98;9.23;;;;;;;;;;5045536;28;20029;-40
2021/12/02 08:42:25;;;;;;;7.75;5.82;;;;;;;;;;5045182;28;20054;-39
2021/12/02 08:44:53;;;;;;;6.38;2.85;;;;;;;;;;5046072;28;20037;-39
2021/12/02 08:47:21;;;;;;;6.03;2.45;;;;;;;;;;5045396;28;20099;-39
2021/12/02 08:49:46;;;;;;;8.00;3.38;;;;;;;;;;5045716;28;20051;-38
2021/12/02 08:52:12;;;;;;;8.40;2.10;;;;;;;;;;5045364;28;20041;-40
2021/12/02 08:54:37;;;;;;;2.15;1.35;;;;;;;;;;5046192;28;20021;-40
2021/12/02 08:57:03;;;;;;;1.30;0.88;;;;;;;;;;5046185;28;20036;-38
2021/12/02 08:59:28;;;;;;;3.85;1.88;;;;;;;;;;5046178;28;20013;-38
2021/12/02 09:01:53;;;;;;;12.50;5.93;;;;;;;;;;5046893;28;20477;-43
2021/12/02 09:04:19;;;;;;;5.75;3.75;;;;;;;;;;5046857;28;20108;-43
2021/12/02 09:06:44;;;;;;;6.97;2.75;;;;;;;;;;5046451;28;20107;-42
2021/12/02 09:09:09;;;;;;;9.70;3.13;;;;;;;;;;5045548;28;20031;-43
2021/12/02 09:11:35;;;;;;;4.35;2.72;;;;;;;;;;5046958;28;20055;-42
2021/12/02 09:14:02;;;;;;;1.55;1.25;;;;;;;;;;5046556;28;20024;-43
2021/12/02 09:16:29;;;;;;;1.23;0.70;;;;;;;;;;5044054;28;20033;-42
2021/12/02 09:18:55;;;;;;;4.32;0.98;;;;;;;;;;5043731;28;20033;-40
2021/12/02 09:21:21;;;;;;;3.80;1.63;;;;;;;;;;5045438;28;20040;-41
2021/12/02 09:23:46;;;;;;;4.35;1.65;;;;;;;;;;5045981;28;20017;-39
2021/12/02 09:26:11;;;;;;;3.10;1.13;;;;;;;;;;5045455;28;20025;-41
2021/12/02 09:28:37;;;;;;;8.88;3.13;;;;;;;;;;5042833;28;20135;-40
2021/12/02 09:31:02;;;;;;;6.80;2.70;;;;;;;;;;5045337;28;20021;-43
2021/12/02 09:33:27;;;;;;;3.13;1.42;;;;;;;;;;5048263;28;20107;-44
2021/12/02 09:35:53;;;;;;;0.93;0.82;;;;;;;;;;5049146;28;20522;-47
2021/12/02 09:38:18;;;;;;;8.20;2.58;;;;;;;;;;5049214;28;20543;-41
2021/12/02 09:40:44;;;;;;;10.20;3.83;;;;;;;;;;5049515;28;20456;-39
2021/12/02 09:43:11;;;;;;;9.23;2.75;;;;;;;;;;5049567;28;20033;-44
2021/12/02 09:45:37;;;;;;;5.55;2.70;;;;;;;;;;5048000;28;20044;-40
2021/12/02 09:48:03;;;;;;;3.40;2.15;;;;;;;;;;5049095;28;20052;-42
2021/12/02 09:50:33;;;;;;;4.65;3.10;;;;;;;;;;5047534;28;20127;-41
2021/12/02 09:53:10;;;;;;;8.43;2.90;;;;;;;;;;5046750;28;20025;-40
2021/12/02 09:58:05;;;;;;;6.25;3.30;;;;;;;;;;5047799;28;20052;-42
2021/12/02 10:00:43;;;;;;;4.03;2.53;;;;;;;;;;5047954;28;20028;-41
2021/12/02 10:03:29;;;;;;;6.15;2.35;;;;;;;;;;5047571;28;20021;-53
2021/12/02 10:05:59;;;;;;;9.50;3.33;;;;;;;;;;5047130;28;20021;-53
2021/12/02 10:08:27;;;;;;;6.22;2.15;;;;;;;;;;5046711;28;20021;-50
2021/12/02 10:10:56;;;;;;;7.18;3.47;;;;;;;;;;5047779;28;20040;-49
2021/12/02 10:13:35;;;;;;;5.28;3.22;;;;;;;;;;5046560;28;20025;-55
2021/12/02 10:18:13;;;;;;;11.65;5.30;;;;;;;;;;5044615;28;20418;-50
2021/12/02 10:20:44;;;;;;;3.63;2.05;;;;;;;;;;5043956;28;20041;-52
2021/12/02 10:23:35;;;;;;;10.73;2.45;;;;;;;;;;5043504;28;20026;-46
2021/12/02 10:26:03;;;;;;;4.20;2.25;;;;;;;;;;5047173;28;20025;-49
2021/12/02 10:28:31;;;;;;;5.47;3.20;;;;;;;;;;5044415;28;20017;-52
2021/12/02 10:31:04;;;;;;;17.42;14.68;;;;;;;;;;5045199;28;20040;-50
2021/12/02 10:33:32;;;;;;;6.68;1.77;;;;;;;;;;5042377;28;20022;-49
2021/12/02 10:35:59;;;;;;;5.82;1.17;;;;;;;;;;5042391;28;20540;-50
2021/12/02 10:38:44;;;;;;;4.57;1.08;;;;;;;;;;5045665;28;20025;-50
2021/12/02 10:41:11;;;;;;;1.75;1.38;;;;;;;;;;5041771;28;20052;-50
2021/12/02 10:43:56;;;;;;;3.22;1.63;;;;;;;;;;5046862;28;20096;-52
2021/12/02 10:46:22;;;;;;;4.78;1.65;;;;;;;;;;5042792;28;20029;-54
2021/12/02 10:48:49;;;;;;;10.60;1.95;;;;;;;;;;5041781;28;20021;-50
2021/12/02 10:51:33;;;;;;;3.80;1.90;;;;;;;;;;5045057;28;20052;-51
2021/12/02 10:53:59;;;;;;;3.75;2.40;;;;;;;;;;5040848;28;20049;-51
2021/12/02 10:56:32;;;;;;;7.72;2.83;;;;;;;;;;5043461;28;20021;-53
2021/12/02 10:58:57;;;;;;;4.35;1.17;;;;;;;;;;5042554;28;20018;-53
2021/12/02 11:01:39;;;;;;;3.50;2.33;;;;;;;;;;5046620;28;20028;-53
2021/12/02 11:04:05;;;;;;;7.25;2.17;;;;;;;;;;5045955;28;20043;-52
2021/12/02 11:06:44;;;;;;;4.50;1.30;;;;;;;;;;5043211;28;20448;-50
2021/12/02 11:09:30;;;;;;;14.40;5.63;;;;;;;;;;5044040;28;20112;-49
2021/12/02 11:12:10;;;;;;;4.05;1.55;;;;;;;;;;5044155;28;20100;-52
2021/12/02 11:14:38;;;;;;;13.93;8.15;;;;;;;;;;5042395;28;20029;-53
2021/12/02 11:17:22;;;;;;;10.35;6.07;;;;;;;;;;5041807;28;20056;-49
2021/12/02 11:19:49;;;;;;;7.22;4.97;;;;;;;;;;5042098;28;20025;-51
2021/12/02 11:22:16;;;;;;;8.32;4.45;;;;;;;;;;5051591;28;20029;-51
2021/12/02 11:24:42;;;;;;;13.13;6.55;;;;;;;;;;5046162;28;20096;-52
2021/12/02 11:27:09;;;;;;;2.58;2.33;;;;;;;;;;5043249;28;20104;-49
2021/12/02 11:29:53;;;;;;;4.20;1.95;;;;;;;;;;5028755;28;20425;-48
2021/12/02 11:32:22;;;;;;;13.63;1.95;;;;;;;;;;5031156;28;20021;-51
2021/12/02 11:34:57;;;;;;;2.53;1.35;;;;;;;;;;5029666;28;20508;-51
2021/12/02 11:37:22;;;;;;;5.57;2.22;;;;;;;;;;5029091;28;20017;-50
2021/12/02 11:39:50;;;;;;;4.20;2.33;;;;;;;;;;5029823;28;20366;-48
2021/12/02 11:42:15;;;;;;;11.43;3.00;;;;;;;;;;5029070;28;20020;-50
2021/12/02 11:44:41;;;;;;;6.15;2.88;;;;;;;;;;5031395;28;20025;-50
2021/12/02 11:47:06;;;;;;;8.35;4.53;;;;;;;;;;5029995;28;20025;-52
2021/12/02 11:49:31;;;;;;;11.90;3.05;;;;;;;;;;5033582;28;20449;-49
2021/12/02 11:51:57;;;;;;;9.98;4.40;;;;;;;;;;5031170;28;20021;-50
2021/12/02 11:54:22;;;;;;;8.40;3.88;;;;;;;;;;5027893;28;20874;-50
2021/12/02 11:56:48;;;;;;;6.55;2.30;;;;;;;;;;5031395;28;20125;-51
2021/12/02 11:59:15;;;;;;;3.03;1.42;;;;;;;;;;5029454;28;20026;-51
2021/12/02 12:01:42;;;;;;;2.63;1.60;;;;;;;;;;5027737;28;20018;-53
2021/12/02 12:04:12;;;;;;;7.75;1.70;;;;;;;;;;5029265;28;20014;-53
2021/12/02 12:06:41;;;;;;;5.53;2.50;;;;;;;;;;5029672;28;20017;-51
2021/12/02 12:09:10;;;;;;;6.13;2.30;;;;;;;;;;5030619;28;20029;-51
2021/12/02 12:11:36;;;;;;;9.63;2.95;;;;;;;;;;5034363;28;20056;-53
2021/12/02 12:14:08;;;;;;;1.98;1.38;;;;;;;;;;5031166;28;20049;-53
2021/12/02 12:16:47;;;;;;;3.97;2.72;;;;;;;;;;5028495;28;20216;-52
2021/12/02 12:19:14;;;;;;;9.02;2.40;;;;;;;;;;5031576;28;20075;-53
2021/12/02 12:21:41;;;;;;;1.15;1.00;;;;;;;;;;5031422;28;20480;-51
2021/12/02 12:24:07;;;;;;;6.43;1.55;;;;;;;;;;5029908;28;20480;-53
2021/12/02 12:26:36;;;;;;;9.05;2.22;;;;;;;;;;5029387;28;20024;-52
2021/12/02 12:29:08;;;;;;;2.90;1.05;;;;;;;;;;5031036;28;20100;-53
2021/12/02 12:31:56;;;;;;;6.07;1.25;;;;;;;;;;5029102;28;20431;-52
2021/12/02 12:34:29;;;;;;;6.43;1.92;;;;;;;;;;5027628;28;20040;-48
2021/12/02 12:36:55;;;;;;;3.03;1.50;;;;;;;;;;5027942;28;20044;-53
2021/12/02 12:39:22;;;;;;;68.85;55.70;;;;;;;;;;5031485;28;20524;-52
2021/12/02 12:42:07;;;;;;;130.70;103.50;;;;;;;;;;5030732;28;20005;-52
2021/12/02 12:44:44;;;;;;;108.93;82.78;;;;;;;;;;5029551;28;20035;-52
2021/12/02 12:47:09;;;;;;;104.45;85.95;;;;;;;;;;5027907;28;20500;-52
2021/12/02 12:49:35;;;;;;;67.90;42.33;;;;;;;;;;5028840;28;20063;-50
2021/12/02 12:52:00;;;;;;;44.63;33.92;;;;;;;;;;5034908;28;20085;-51
2021/12/02 12:54:25;;;;;;;13.70;10.57;;;;;;;;;;5031765;28;20022;-53
2021/12/02 12:57:02;;;;;;;26.02;18.70;;;;;;;;;;5028689;28;20036;-53
2021/12/02 12:59:27;;;;;;;21.52;14.50;;;;;;;;;;5032275;28;20028;-53
2021/12/02 13:01:57;;;;;;;30.70;23.95;;;;;;;;;;5029535;28;20021;-55
2021/12/02 13:04:25;;;;;;;20.88;12.00;;;;;;;;;;5030322;28;20013;-49
2021/12/02 13:07:05;;;;;;;12.35;8.60;;;;;;;;;;5031458;28;20033;-54
2021/12/02 13:09:41;;;;;;;19.05;13.27;;;;;;;;;;5028582;28;20044;-51
2021/12/02 13:12:07;;;;;;;17.35;11.95;;;;;;;;;;5027112;28;20024;-52
2021/12/02 13:14:33;;;;;;;14.70;9.35;;;;;;;;;;5028391;28;20112;-50
2021/12/02 13:16:58;;;;;;;11.50;4.85;;;;;;;;;;5028074;28;20981;-47
2021/12/02 13:19:24;;;;;;;12.07;5.25;;;;;;;;;;5028473;28;20109;-53
2021/12/02 13:21:56;;;;;;;9.30;5.82;;;;;;;;;;5027786;28;20093;-52
2021/12/02 13:24:30;;;;;;;5.97;5.38;;;;;;;;;;5030019;28;20047;-49
2021/12/02 13:27:01;;;;;;;8.05;5.95;;;;;;;;;;5030803;28;20022;-48
2021/12/02 13:29:28;;;;;;;10.13;3.50;;;;;;;;;;5030277;28;20048;-54
2021/12/02 13:31:55;;;;;;;9.32;3.80;;;;;;;;;;5028309;28;20554;-49
2021/12/02 13:34:21;;;;;;;18.75;8.25;;;;;;;;;;5028208;28;20080;-52
2021/12/02 13:36:50;;;;;;;13.63;9.40;;;;;;;;;;5027679;28;20028;-50
2021/12/02 13:39:17;;;;;;;15.05;11.43;;;;;;;;;;5029934;28;20029;-52
2021/12/02 13:41:49;;;;;;;10.55;8.35;;;;;;;;;;5026810;28;20018;-52
2021/12/02 13:44:17;;;;;;;6.43;3.75;;;;;;;;;;5028466;28;20071;-50
2021/12/02 13:46:50;;;;;;;6.68;2.78;;;;;;;;;;5031213;28;20107;-48
2021/12/02 13:49:24;;;;;;;6.30;3.22;;;;;;;;;;5026497;28;20056;-50
2021/12/02 13:54:36;;;;;;;5.85;2.42;;;;;;;;;;5028010;28;20170;-53
2021/12/02 13:57:22;;;;;;;5.93;1.52;;;;;;;;;;5027254;28;20139;-54
2021/12/02 13:59:47;;;;;;;3.60;2.30;;;;;;;;;;5028137;28;20025;-53
2021/12/02 14:02:17;;;;;;;4.72;3.45;;;;;;;;;;5027896;28;20022;-51
2021/12/02 14:04:45;;;;;;;4.90;3.00;;;;;;;;;;5031584;28;20140;-53
2021/12/02 14:07:21;;;;;;;6.53;3.55;;;;;;;;;;5031585;28;20029;-50
2021/12/02 14:09:47;;;;;;;6.15;4.45;;;;;;;;;;5027389;28;20037;-51
2021/12/02 14:12:13;;;;;;;7.07;5.72;;;;;;;;;;5029490;28;20025;-52
2021/12/02 14:14:53;;;;;;;8.18;5.90;;;;;;;;;;5028033;28;20388;-53
2021/12/02 14:17:18;;;;;;;18.50;11.27;;;;;;;;;;5029092;28;20114;-51
2021/12/02 14:20:02;;;;;;;10.95;7.07;;;;;;;;;;5028443;28;20105;-53
2021/12/02 14:22:27;;;;;;;14.77;8.40;;;;;;;;;;5027289;28;20026;-53
2021/12/02 14:24:53;;;;;;;8.70;5.72;;;;;;;;;;5028579;28;20280;-50
2021/12/02 14:27:18;;;;;;;8.68;5.50;;;;;;;;;;5027913;28;20439;-49
2021/12/02 14:29:43;;;;;;;8.55;4.68;;;;;;;;;;5026813;28;20554;-53
2021/12/02 14:32:10;;;;;;;6.95;5.82;;;;;;;;;;5027908;28;20024;-48
2021/12/02 14:34:35;;;;;;;35.47;28.27;;;;;;;;;;5031578;28;20137;-50
2021/12/02 14:37:00;;;;;;;30.88;21.70;;;;;;;;;;5026823;28;20100;-49
2021/12/02 14:39:25;;;;;;;23.17;20.52;;;;;;;;;;5028057;28;20083;-48
2021/12/02 14:41:52;;;;;;;22.95;17.85;;;;;;;;;;5026890;28;20022;-44
2021/12/02 14:44:22;;;;;;;38.45;26.10;;;;;;;;;;5030104;28;20160;-53
2021/12/02 14:46:48;;;;;;;11.75;7.35;;;;;;;;;;5029161;28;20029;-51
2021/12/02 14:49:25;;;;;;;15.98;7.05;;;;;;;;;;5027332;28;20025;-54
2021/12/02 14:51:55;;;;;;;49.08;24.70;;;;;;;;;;5027671;28;20017;-49
2021/12/02 14:54:31;;;;;;;15.15;8.30;;;;;;;;;;5031275;28;20024;-51
2021/12/02 14:56:57;;;;;;;60.10;34.88;;;;;;;;;;5027377;28;20047;-54
2021/12/02 14:59:23;;;;;;;272.45;134.85;;;;;;;;;;5027972;28;20676;-53
2021/12/02 15:02:08;;;;;;;158.68;88.65;;;;;;;;;;5027019;28;20060;-47
2021/12/02 15:04:33;;;;;;;29.20;22.10;;;;;;;;;;5029260;28;20068;-49
2021/12/02 15:07:10;;;;;;;14.15;6.68;;;;;;;;;;5029580;28;20033;-47
2021/12/02 15:09:35;;;;;;;5.70;3.50;;;;;;;;;;5029743;28;20595;-50